Time;durP1;ratioP1;P1;durP2;ratioP2;P2;SDS_P1;SDS_P2;PMS_P1;PMS_P2;Temp;Humidity;BMP_temperature;BMP_pressure;BME280_temperature;BME280_humidity;BME280_pressure;Samples;Min_cycle;Max_cycle;Signal;HPM_P1;HPM_P2
2023/03/18 00:01:40;;;;;;;7.13;1.30;;;;;;;11.81;54.94;100225.63;6001289;28;20035;-72
2023/03/18 00:04:37;;;;;;;3.58;1.45;;;;;;;11.81;55.26;100218.50;5999681;28;20030;-72
2023/03/18 00:07:34;;;;;;;3.28;1.30;;;;;;;11.83;54.80;100216.50;6003977;28;20088;-71
2023/03/18 00:10:31;;;;;;;2.72;1.30;;;;;;;11.78;55.51;100210.84;6005163;28;20065;-73
2023/03/18 00:13:27;;;;;;;3.72;1.30;;;;;;;11.78;55.79;100218.81;6005239;28;20450;-73
2023/03/18 00:16:22;;;;;;;2.53;1.10;;;;;;;11.74;56.09;100206.84;6005484;28;20035;-71
2023/03/18 00:19:18;;;;;;;3.75;1.38;;;;;;;11.71;55.82;100209.84;6005625;28;20035;-73
2023/03/18 00:22:14;;;;;;;4.18;1.40;;;;;;;11.71;56.45;100223.13;6004757;28;20035;-73
2023/03/18 00:25:12;;;;;;;4.53;1.70;;;;;;;11.63;56.20;100215.13;6005100;28;20045;-71
2023/03/18 00:28:07;;;;;;;3.70;1.33;;;;;;;11.53;57.06;100219.75;6005452;28;20466;-73
2023/03/18 00:31:07;;;;;;;2.85;1.30;;;;;;;11.52;57.88;100230.56;6004878;28;20038;-72
2023/03/18 00:34:03;;;;;;;6.47;1.55;;;;;;;11.48;58.01;100229.22;6003125;28;20069;-73
2023/03/18 00:36:59;;;;;;;2.80;1.50;;;;;;;11.49;58.03;100234.38;6004910;28;20034;-73
2023/03/18 00:40:03;;;;;;;3.53;2.10;;;;;;;11.45;58.18;100226.88;6004814;28;20035;-72
2023/03/18 00:43:06;;;;;;;3.83;1.40;;;;;;;11.48;57.79;100227.38;5998977;28;20411;-71
2023/03/18 00:46:02;;;;;;;2.85;1.33;;;;;;;11.46;58.02;100218.75;6005004;28;20462;-72
2023/03/18 00:48:59;;;;;;;3.13;1.50;;;;;;;11.58;58.04;100235.19;6004707;28;20038;-72
2023/03/18 00:51:55;;;;;;;2.70;1.17;;;;;;;11.64;57.59;100243.34;6004148;28;20039;-72
2023/03/18 00:54:50;;;;;;;3.93;1.43;;;;;;;11.68;57.50;100250.00;6005093;28;20047;-73
2023/03/18 00:57:45;;;;;;;2.70;1.37;;;;;;;11.62;57.58;100240.03;6004747;28;20085;-72
2023/03/18 01:00:41;;;;;;;3.15;1.30;;;;;;;11.72;57.72;100251.34;6004166;28;20325;-72
2023/03/18 01:03:36;;;;;;;2.23;1.40;;;;;;;11.68;57.92;100242.03;6003790;28;20046;-71
2023/03/18 01:06:35;;;;;;;3.05;1.30;;;;;;;11.52;58.88;100243.84;6003998;28;20287;-72
2023/03/18 01:09:30;;;;;;;4.15;1.58;;;;;;;11.41;59.63;100238.84;6004658;28;20027;-72
2023/03/18 01:12:26;;;;;;;2.95;1.48;;;;;;;11.36;59.72;100250.75;6003679;28;20085;-72
2023/03/18 01:15:22;;;;;;;4.22;1.35;;;;;;;11.35;59.21;100243.81;6004048;28;20027;-72
2023/03/18 01:18:18;;;;;;;4.15;1.50;;;;;;;11.28;59.77;100242.78;6003174;28;20042;-71
2023/03/18 01:21:13;;;;;;;3.33;1.60;;;;;;;11.25;59.62;100242.28;6004057;28;20125;-72
2023/03/18 01:24:09;;;;;;;3.33;1.30;;;;;;;11.21;59.57;100246.25;6003561;28;20390;-72
2023/03/18 01:27:05;;;;;;;4.22;1.13;;;;;;;11.19;59.56;100235.81;6002924;28;20286;-72
2023/03/18 01:30:00;;;;;;;5.43;1.30;;;;;;;11.25;59.71;100244.94;6003533;28;20115;-73
2023/03/18 01:32:56;;;;;;;5.60;1.63;;;;;;;11.20;60.09;100233.94;6002595;28;20038;-73
2023/03/18 01:35:58;;;;;;;3.70;1.30;;;;;;;11.17;60.17;100234.31;6004285;28;20630;-72
2023/03/18 01:38:55;;;;;;;4.50;1.63;;;;;;;11.22;59.91;100238.09;6000205;28;20041;-73
2023/03/18 01:41:50;;;;;;;2.88;1.20;;;;;;;11.17;60.21;100231.66;6003169;28;20594;-72
2023/03/18 01:44:45;;;;;;;3.50;1.40;;;;;;;11.10;60.57;100242.06;6004102;28;20030;-71
2023/03/18 01:47:43;;;;;;;5.00;1.50;;;;;;;11.11;60.81;100258.81;6004012;28;20085;-71
2023/03/18 01:50:38;;;;;;;3.15;1.50;;;;;;;11.06;61.37;100255.81;6003597;28;20093;-72
2023/03/18 01:53:41;;;;;;;3.43;1.43;;;;;;;11.07;61.05;100262.78;6003166;28;20070;-72
2023/03/18 01:56:38;;;;;;;3.85;1.70;;;;;;;11.00;61.14;100256.47;6003305;28;20042;-73
2023/03/18 01:59:37;;;;;;;3.83;1.70;;;;;;;10.92;61.58;100251.97;6003402;28;20050;-72
2023/03/18 02:02:32;;;;;;;3.75;1.50;;;;;;;10.89;62.11;100256.75;6000834;28;20049;-72
2023/03/18 02:05:28;;;;;;;3.78;1.42;;;;;;;10.69;62.25;100240.22;6004039;28;20455;-72
2023/03/18 02:08:24;;;;;;;5.88;1.50;;;;;;;10.69;62.67;100246.38;5993892;28;20452;-73
2023/03/18 02:11:19;;;;;;;2.95;1.30;;;;;;;10.63;62.57;100246.16;6003304;28;20035;-73
2023/03/18 02:14:15;;;;;;;6.10;1.55;;;;;;;10.64;62.89;100263.75;6002218;28;20172;-73
2023/03/18 02:17:14;;;;;;;4.70;1.50;;;;;;;10.50;63.58;100243.94;6001916;28;20050;-72
2023/03/18 02:20:26;;;;;;;4.22;1.33;;;;;;;10.55;64.14;100260.22;6002268;28;20073;-73
2023/03/18 02:23:35;;;;;;;4.65;1.40;;;;;;;10.49;64.09;100254.72;6017513;28;20066;-72
2023/03/18 02:26:56;;;;;;;3.55;1.60;;;;;;;10.50;64.00;100251.06;6001785;28;20049;-71
2023/03/18 02:29:54;;;;;;;6.78;1.90;;;;;;;10.57;63.37;100257.41;6001014;28;20641;-72
2023/03/18 02:32:50;;;;;;;4.57;1.70;;;;;;;10.55;63.47;100249.59;6000625;28;20089;-72
2023/03/18 02:35:46;;;;;;;3.60;1.50;;;;;;;10.65;63.22;100262.78;6000339;28;20050;-73
2023/03/18 02:38:43;;;;;;;4.05;1.52;;;;;;;10.71;63.19;100276.22;6002532;28;20031;-72
2023/03/18 02:41:38;;;;;;;3.22;1.48;;;;;;;10.79;63.08;100269.31;6002825;28;20439;-73
2023/03/18 02:44:39;;;;;;;2.40;1.33;;;;;;;10.60;63.23;100251.78;6001976;28;20121;-71
2023/03/18 02:47:35;;;;;;;3.63;1.30;;;;;;;10.66;63.38;100262.59;6002414;28;20121;-72
2023/03/18 02:50:30;;;;;;;6.20;2.35;;;;;;;10.76;63.56;100289.81;6002591;28;20033;-72
2023/03/18 02:53:26;;;;;;;4.77;1.50;;;;;;;10.70;63.61;100285.19;6002062;28;20034;-71
2023/03/18 02:56:22;;;;;;;2.70;1.40;;;;;;;10.71;63.80;100291.28;6002303;28;20174;-71
2023/03/18 02:59:19;;;;;;;5.13;1.80;;;;;;;10.64;63.82;100283.16;6002267;28;20050;-71
2023/03/18 03:02:15;;;;;;;2.95;1.80;;;;;;;10.64;64.00;100291.09;6001585;28;20117;-71
2023/03/18 03:05:11;;;;;;;6.00;2.17;;;;;;;10.62;64.52;100286.94;6002400;28;20038;-72
2023/03/18 03:08:06;;;;;;;4.93;1.60;;;;;;;10.58;65.36;100297.03;6002441;28;20037;-72
2023/03/18 03:11:02;;;;;;;4.35;1.58;;;;;;;10.51;65.12;100281.91;6002624;28;20082;-71
2023/03/18 03:13:58;;;;;;;6.18;1.95;;;;;;;10.47;65.31;100289.31;6001441;28;20043;-71
2023/03/18 03:16:53;;;;;;;4.28;1.92;;;;;;;10.41;65.81;100274.03;6002253;28;20030;-71
2023/03/18 03:19:49;;;;;;;3.80;1.77;;;;;;;10.44;66.31;100283.50;6016810;28;20034;-72
2023/03/18 03:22:45;;;;;;;4.57;1.90;;;;;;;10.50;66.25;100296.97;6002025;28;20027;-72
2023/03/18 03:25:40;;;;;;;3.92;1.88;;;;;;;10.52;67.90;100312.69;6002195;28;20031;-73
2023/03/18 03:28:36;;;;;;;4.40;1.83;;;;;;;10.45;68.38;100312.50;6001535;28;20039;-72
2023/03/18 03:31:32;;;;;;;3.83;1.65;;;;;;;10.48;69.38;100306.06;6002151;28;20039;-72
2023/03/18 03:34:28;;;;;;;4.32;1.63;;;;;;;10.51;69.92;100314.56;6001259;28;20046;-72
2023/03/18 03:37:23;;;;;;;6.97;2.30;;;;;;;10.48;71.56;100316.66;6002051;28;20541;-71
2023/03/18 03:40:19;;;;;;;4.87;1.40;;;;;;;10.23;73.37;100301.56;6002260;28;20378;-71
2023/03/18 03:43:15;;;;;;;4.05;1.70;;;;;;;10.02;75.07;100304.53;6004730;28;20035;-72
2023/03/18 03:46:10;;;;;;;5.30;1.67;;;;;;;10.02;77.05;100331.84;6005374;28;20683;-72
2023/03/18 03:49:06;;;;;;;4.43;1.80;;;;;;;9.88;77.36;100315.63;6005138;28;20503;-71
2023/03/18 03:52:01;;;;;;;4.03;1.90;;;;;;;9.81;78.33;100309.31;6005810;28;20092;-72
2023/03/18 03:54:59;;;;;;;4.50;1.90;;;;;;;9.87;79.19;100320.09;6005468;28;20035;-73
2023/03/18 03:57:55;;;;;;;6.55;2.40;;;;;;;9.77;81.88;100331.75;6006447;28;20031;-72
2023/03/18 04:00:51;;;;;;;4.35;2.15;;;;;;;9.57;85.28;100326.59;6006130;28;20039;-71
2023/03/18 04:03:47;;;;;;;5.95;2.20;;;;;;;9.54;87.67;100344.56;6005482;28;20449;-71
2023/03/18 04:06:42;;;;;;;5.13;2.25;;;;;;;9.39;89.91;100340.75;6006297;28;20049;-71
2023/03/18 04:09:38;;;;;;;5.53;2.33;;;;;;;9.22;91.45;100336.25;6005990;28;20070;-72
2023/03/18 04:12:33;;;;;;;5.67;2.30;;;;;;;9.10;92.88;100335.63;6005738;28;20281;-72
2023/03/18 04:15:28;;;;;;;8.13;2.80;;;;;;;9.07;94.14;100335.06;6006268;28;20039;-71
2023/03/18 04:18:24;;;;;;;5.55;2.13;;;;;;;9.00;93.65;100337.47;6005837;28;20045;-70
2023/03/18 04:21:20;;;;;;;3.80;1.88;;;;;;;8.91;94.21;100339.16;6006159;28;20035;-71
2023/03/18 04:24:15;;;;;;;6.67;2.30;;;;;;;8.94;94.77;100352.09;6005145;28;20039;-71
2023/03/18 04:27:11;;;;;;;7.63;2.40;;;;;;;8.98;94.56;100339.41;6005156;28;20026;-72
2023/03/18 04:30:08;;;;;;;5.22;2.33;;;;;;;8.93;94.67;100333.75;6005582;28;20506;-71
2023/03/18 04:33:03;;;;;;;6.88;2.42;;;;;;;8.95;95.13;100340.53;6004633;28;20110;-72
2023/03/18 04:35:59;;;;;;;5.35;2.22;;;;;;;8.96;95.56;100347.50;6005212;28;20050;-72
2023/03/18 04:38:55;;;;;;;5.97;2.70;;;;;;;8.99;95.45;100343.75;6005506;28;20483;-72
2023/03/18 04:41:51;;;;;;;5.35;2.40;;;;;;;8.86;95.73;100330.00;6004571;28;20497;-72
2023/03/18 04:44:46;;;;;;;7.40;2.60;;;;;;;8.92;95.84;100338.19;6005655;28;20042;-72
2023/03/18 04:47:43;;;;;;;5.67;2.30;;;;;;;8.85;95.72;100321.25;6005307;28;20678;-71
2023/03/18 04:50:38;;;;;;;7.55;2.45;;;;;;;8.90;95.06;100331.38;6005493;28;20274;-72
2023/03/18 04:53:37;;;;;;;7.53;2.60;;;;;;;8.90;94.88;100331.38;6003632;28;20483;-72
2023/03/18 04:56:32;;;;;;;7.55;2.85;;;;;;;8.99;94.66;100349.03;6004980;28;20451;-72
2023/03/18 04:59:28;;;;;;;8.80;2.63;;;;;;;8.99;94.54;100341.09;6004890;28;20147;-73
2023/03/18 05:02:24;;;;;;;6.23;2.70;;;;;;;9.03;94.63;100337.16;6004050;28;20478;-72
2023/03/18 05:05:20;;;;;;;5.97;2.58;;;;;;;9.08;94.59;100337.56;5996330;28;20114;-72
2023/03/18 05:08:15;;;;;;;9.65;2.90;;;;;;;9.14;95.27;100341.44;6004599;28;20042;-72
2023/03/18 05:11:10;;;;;;;6.07;2.50;;;;;;;9.22;95.43;100345.03;6005203;28;20035;-71
2023/03/18 05:14:06;;;;;;;5.33;2.57;;;;;;;9.15;95.38;100340.47;6004398;28;20034;-72
2023/03/18 05:17:03;;;;;;;5.90;2.80;;;;;;;9.08;96.08;100334.91;6004543;28;20042;-71
2023/03/18 05:19:58;;;;;;;6.65;3.22;;;;;;;9.19;96.26;100353.25;5996907;28;20379;-73
2023/03/18 05:22:53;;;;;;;13.13;3.45;;;;;;;9.14;96.58;100338.78;6003985;28;20039;-72
2023/03/18 05:25:49;;;;;;;7.77;2.90;;;;;;;9.10;96.89;100332.97;6004024;28;20058;-73
2023/03/18 05:28:44;;;;;;;7.53;2.80;;;;;;;9.15;96.97;100341.31;6004538;28;20026;-71
2023/03/18 05:31:40;;;;;;;6.63;3.20;;;;;;;9.11;97.09;100339.91;6004220;28;20065;-72
2023/03/18 05:34:36;;;;;;;6.33;3.10;;;;;;;9.15;97.41;100345.75;6003072;28;20038;-71
2023/03/18 05:37:31;;;;;;;6.65;3.05;;;;;;;9.16;97.46;100332.38;6004097;28;20143;-72
2023/03/18 05:40:27;;;;;;;6.67;3.30;;;;;;;9.12;97.05;100325.72;6003300;28;20068;-72
2023/03/18 05:43:23;;;;;;;6.50;2.78;;;;;;;9.21;97.36;100343.38;6003246;28;20487;-73
2023/03/18 05:46:18;;;;;;;7.55;2.97;;;;;;;9.12;97.04;100341.59;5989865;28;20062;-72
2023/03/18 05:49:14;;;;;;;6.73;3.00;;;;;;;9.09;96.78;100341.03;6004325;28;20038;-72
2023/03/18 05:52:09;;;;;;;9.00;3.03;;;;;;;9.18;96.63;100367.47;6003343;28;20497;-73
2023/03/18 05:55:12;;;;;;;5.75;3.03;;;;;;;9.15;96.38;100346.59;6004227;28;20270;-71
2023/03/18 05:58:07;;;;;;;7.22;3.05;;;;;;;9.24;95.85;100358.94;6003877;28;20042;-71
2023/03/18 06:01:03;;;;;;;6.32;3.60;;;;;;;9.21;95.37;100348.66;6003898;28;20046;-71
2023/03/18 06:03:59;;;;;;;8.18;3.28;;;;;;;9.20;95.85;100360.22;6002951;28;20046;-71
2023/03/18 06:06:55;;;;;;;5.07;2.97;;;;;;;9.14;95.38;100355.50;6003612;28;20038;-74
2023/03/18 06:09:51;;;;;;;8.52;3.20;;;;;;;9.10;95.71;100343.56;6003885;28;20085;-71
2023/03/18 06:12:46;;;;;;;8.83;3.03;;;;;;;9.13;95.67;100351.19;6002639;28;20039;-71
2023/03/18 06:15:41;;;;;;;7.43;2.83;;;;;;;9.14;96.06;100374.03;6003817;28;20277;-72
2023/03/18 06:18:37;;;;;;;7.27;2.70;;;;;;;9.03;96.11;100360.97;6003551;28;20038;-72
2023/03/18 06:21:33;;;;;;;8.18;3.22;;;;;;;9.07;96.28;100354.44;6003236;28;20069;-72
2023/03/18 06:24:28;;;;;;;7.28;2.88;;;;;;;9.08;96.18;100355.28;6002810;28;20027;-72
2023/03/18 06:27:24;;;;;;;5.73;2.60;;;;;;;9.08;96.11;100349.97;6003153;28;20031;-71
2023/03/18 06:30:19;;;;;;;10.60;2.80;;;;;;;9.11;96.36;100345.22;6003205;28;20034;-73
2023/03/18 06:33:15;;;;;;;6.90;2.50;;;;;;;9.20;96.21;100354.09;6000954;28;20093;-71
2023/03/18 06:36:11;;;;;;;5.28;2.40;;;;;;;9.37;95.51;100353.31;6001658;28;20058;-72
2023/03/18 06:39:06;;;;;;;6.82;2.72;;;;;;;9.53;94.53;100346.41;6001443;28;20027;-72
2023/03/18 06:42:02;;;;;;;7.73;2.60;;;;;;;9.69;93.66;100364.28;6000701;28;20042;-72
2023/03/18 06:44:57;;;;;;;6.82;2.78;;;;;;;9.85;93.02;100360.97;6001764;28;20759;-71
2023/03/18 06:47:53;;;;;;;5.77;2.87;;;;;;;10.04;92.66;100379.38;6001399;28;20034;-71
2023/03/18 06:50:48;;;;;;;6.30;2.80;;;;;;;10.20;91.92;100382.19;6001038;28;20060;-72
2023/03/18 06:53:44;;;;;;;7.43;2.40;;;;;;;10.32;91.46;100353.66;6000865;28;20031;-72
2023/03/18 06:56:40;;;;;;;6.35;2.63;;;;;;;10.56;89.81;100362.63;6000491;28;20047;-72
2023/03/18 06:59:36;;;;;;;5.28;2.17;;;;;;;10.71;89.38;100374.31;6001225;28;20394;-73
2023/03/18 07:02:32;;;;;;;4.35;2.00;;;;;;;10.89;89.58;100378.75;6000649;28;20034;-72
2023/03/18 07:05:28;;;;;;;6.97;2.75;;;;;;;11.05;88.42;100392.13;6001019;28;20030;-71
2023/03/18 07:08:24;;;;;;;6.45;2.50;;;;;;;11.08;88.64;100405.94;6001153;28;20086;-73
2023/03/18 07:11:20;;;;;;;6.57;2.40;;;;;;;11.05;88.98;100400.09;6000183;28;20027;-72
2023/03/18 07:14:17;;;;;;;8.82;2.25;;;;;;;11.02;88.86;100400.41;5999041;28;20035;-72
2023/03/18 07:17:13;;;;;;;6.05;2.22;;;;;;;11.03;89.73;100408.22;6005539;28;20034;-72
2023/03/18 07:20:09;;;;;;;4.97;2.15;;;;;;;11.29;88.88;100402.88;6009253;28;20035;-71
2023/03/18 07:23:05;;;;;;;6.90;2.53;;;;;;;11.42;88.16;100415.69;6008506;28;20038;-73
2023/03/18 07:26:00;;;;;;;5.88;2.25;;;;;;;11.54;87.54;100404.66;5996559;28;20050;-72
2023/03/18 07:28:55;;;;;;;4.97;2.22;;;;;;;11.51;86.60;100407.63;6003185;28;20034;-72
2023/03/18 07:31:51;;;;;;;5.33;2.27;;;;;;;11.59;87.25;100426.25;6001077;28;20042;-72
2023/03/18 07:34:47;;;;;;;5.30;2.60;;;;;;;11.57;86.68;100407.00;6007470;28;20446;-72
2023/03/18 07:37:42;;;;;;;7.05;2.47;;;;;;;11.73;85.86;100415.06;6007838;28;20105;-71
2023/03/18 07:40:38;;;;;;;6.90;2.27;;;;;;;11.93;86.38;100428.88;6007451;28;20481;-72
2023/03/18 07:43:34;;;;;;;6.05;2.30;;;;;;;11.85;86.52;100431.50;6007410;28;20538;-72
2023/03/18 07:46:29;;;;;;;4.65;2.53;;;;;;;11.91;87.14;100446.81;6007732;28;20545;-72
2023/03/18 07:49:24;;;;;;;6.10;2.40;;;;;;;11.79;86.87;100433.03;6007852;28;20038;-72
2023/03/18 07:52:20;;;;;;;8.57;2.37;;;;;;;11.93;86.80;100443.00;6006352;28;20035;-70
2023/03/18 07:55:15;;;;;;;6.30;2.10;;;;;;;11.94;86.96;100450.00;6007284;28;20269;-72
2023/03/18 07:58:11;;;;;;;5.80;2.50;;;;;;;12.05;87.57;100448.88;6002489;28;20054;-71
2023/03/18 08:01:06;;;;;;;5.55;2.20;;;;;;;12.28;86.19;100467.72;6005005;28;20069;-71
2023/03/18 08:04:02;;;;;;;4.53;2.30;;;;;;;12.25;85.69;100447.59;6004398;28;20023;-71
2023/03/18 08:06:57;;;;;;;5.32;2.53;;;;;;;12.41;85.66;100465.41;6005507;28;20522;-72
2023/03/18 08:09:52;;;;;;;5.47;2.35;;;;;;;12.36;86.09;100454.44;6004544;28;20050;-70
2023/03/18 08:12:48;;;;;;;5.50;2.10;;;;;;;12.39;85.96;100464.75;6004587;28;20034;-71
2023/03/18 08:15:43;;;;;;;5.93;2.10;;;;;;;12.39;86.72;100456.75;6005251;28;20027;-71
2023/03/18 08:18:38;;;;;;;5.70;2.07;;;;;;;12.70;85.74;100454.28;6005258;28;20430;-71
2023/03/18 08:21:34;;;;;;;5.70;2.33;;;;;;;12.99;83.78;100470.59;6006424;28;20441;-71
2023/03/18 08:24:29;;;;;;;5.82;2.55;;;;;;;12.69;84.88;100468.59;6005086;28;20106;-71
2023/03/18 08:27:24;;;;;;;3.57;2.00;;;;;;;12.83;84.19;100471.41;6006069;28;20043;-71
2023/03/18 08:30:24;;;;;;;4.67;1.83;;;;;;;12.92;83.70;100473.09;6002125;28;20293;-72
2023/03/18 08:33:19;;;;;;;6.85;2.38;;;;;;;13.12;83.91;100481.59;6002399;28;20293;-71
2023/03/18 08:36:15;;;;;;;8.68;2.67;;;;;;;13.31;82.21;100470.59;5998450;28;20474;-73
2023/03/18 08:39:10;;;;;;;5.50;2.03;;;;;;;13.34;83.15;100480.91;5995810;28;20035;-72
2023/03/18 08:42:06;;;;;;;7.30;2.50;;;;;;;13.16;82.37;100474.91;6000694;28;20398;-71
2023/03/18 08:45:01;;;;;;;3.75;1.75;;;;;;;12.98;84.08;100463.59;6002150;28;21129;-72
2023/03/18 08:47:57;;;;;;;3.80;1.90;;;;;;;13.06;84.62;100487.53;6001730;28;20445;-72
2023/03/18 08:50:53;;;;;;;5.88;2.15;;;;;;;13.07;83.45;100468.75;6000291;28;20054;-72
2023/03/18 08:53:49;;;;;;;4.65;2.08;;;;;;;13.63;83.70;100488.31;6000534;28;20364;-72
2023/03/18 08:56:45;;;;;;;6.07;2.92;;;;;;;14.06;81.99;100482.47;5999503;28;20046;-72
2023/03/18 08:59:40;;;;;;;4.87;1.97;;;;;;;14.23;79.88;100478.72;6000237;28;20030;-72
2023/03/18 09:02:35;;;;;;;4.17;1.90;;;;;;;14.68;78.44;100477.94;6001652;28;20026;-72
2023/03/18 09:05:31;;;;;;;7.50;2.53;;;;;;;14.93;76.79;100475.91;6002495;28;20035;-72
2023/03/18 09:08:29;;;;;;;5.05;2.35;;;;;;;15.03;77.15;100495.19;6002543;28;20049;-72
2023/03/18 09:11:25;;;;;;;8.38;2.38;;;;;;;15.31;76.04;100490.94;6003051;28;20053;-72
2023/03/18 09:14:20;;;;;;;5.77;1.90;;;;;;;15.25;73.62;100486.31;6004006;28;20365;-72
2023/03/18 09:17:15;;;;;;;6.80;2.47;;;;;;;15.19;75.31;100486.22;6005089;28;20039;-74
2023/03/18 09:20:13;;;;;;;4.47;2.17;;;;;;;15.58;73.58;100508.22;6004495;28;20046;-71
2023/03/18 09:23:09;;;;;;;6.07;2.53;;;;;;;15.23;74.26;100512.38;6004298;28;20117;-72
2023/03/18 09:26:04;;;;;;;5.65;2.30;;;;;;;15.04;75.44;100504.03;6004884;28;20069;-74
2023/03/18 09:29:00;;;;;;;5.10;2.40;;;;;;;14.80;76.05;100518.41;6004546;28;20390;-74
2023/03/18 09:31:55;;;;;;;5.93;2.50;;;;;;;14.38;77.86;100507.34;6003990;28;20502;-74
2023/03/18 09:34:51;;;;;;;4.97;2.87;;;;;;;14.07;79.71;100521.47;6003909;28;20039;-74
2023/03/18 09:37:47;;;;;;;5.63;2.72;;;;;;;13.94;80.46;100515.03;6004603;28;20065;-73
2023/03/18 09:40:58;;;;;;;6.00;2.63;;;;;;;13.82;81.03;100511.06;6003919;28;20085;-73
2023/03/18 09:44:12;;;;;;;5.38;2.50;;;;;;;13.85;81.23;100513.38;6003661;28;20035;-73
2023/03/18 09:47:55;;;;;;;7.22;2.70;;;;;;;13.99;80.57;100518.00;6004160;28;20382;-73
2023/03/18 09:51:09;;;;;;;5.97;2.65;;;;;;;13.96;80.40;100508.53;6004378;28;20038;-71
2023/03/18 09:54:19;;;;;;;5.20;2.70;;;;;;;14.18;78.77;100497.09;6003349;28;20046;-72
2023/03/18 09:57:24;;;;;;;5.05;2.60;;;;;;;14.18;79.34;100501.59;6004173;28;20093;-72
2023/03/18 10:00:24;;;;;;;6.03;2.90;;;;;;;14.29;79.06;100515.34;6002361;28;20038;-74
2023/03/18 10:03:40;;;;;;;4.32;2.40;;;;;;;14.50;77.69;100521.94;6003495;28;20562;-72
2023/03/18 10:06:36;;;;;;;5.00;2.40;;;;;;;14.87;76.45;100511.34;6003749;28;20039;-72
2023/03/18 10:09:36;;;;;;;6.20;2.50;;;;;;;15.05;75.55;100501.19;6002536;28;20118;-72
2023/03/18 10:12:38;;;;;;;6.80;2.78;;;;;;;15.10;74.05;100522.00;6002938;28;20072;-73
2023/03/18 10:15:37;;;;;;;5.47;2.20;;;;;;;14.81;74.54;100509.41;6002395;28;20042;-72
2023/03/18 10:18:35;;;;;;;5.07;2.50;;;;;;;14.98;75.50;100516.25;6003390;28;20082;-71
2023/03/18 10:21:42;;;;;;;4.63;2.30;;;;;;;15.29;73.67;100529.53;6002193;28;20118;-72
2023/03/18 10:24:41;;;;;;;5.97;2.80;;;;;;;15.62;70.87;100509.53;6002620;28;20045;-71
2023/03/18 10:27:58;;;;;;;4.88;2.30;;;;;;;15.91;69.25;100530.06;6001961;28;20038;-73
2023/03/18 10:31:06;;;;;;;6.78;2.30;;;;;;;16.04;69.05;100535.59;6003054;28;20033;-73
2023/03/18 10:34:08;;;;;;;4.72;2.63;;;;;;;16.22;68.90;100535.22;6002674;28;20053;-73
2023/03/18 10:37:14;;;;;;;3.42;2.28;;;;;;;16.36;67.43;100539.72;6001970;28;20105;-73
2023/03/18 10:40:15;;;;;;;6.97;2.47;;;;;;;16.36;67.56;100529.84;6001643;28;20657;-73
2023/03/18 10:43:18;;;;;;;5.65;2.47;;;;;;;16.43;67.15;100524.56;6002414;28;20058;-73
2023/03/18 10:46:14;;;;;;;6.18;2.55;;;;;;;16.82;65.88;100541.13;6002499;28;20042;-73
2023/03/18 10:49:19;;;;;;;5.78;2.70;;;;;;;16.48;64.56;100517.63;6003098;28;20031;-73
2023/03/18 10:52:29;;;;;;;4.07;2.30;;;;;;;15.96;66.91;100533.03;6001297;28;20089;-73
2023/03/18 10:55:29;;;;;;;4.57;2.40;;;;;;;15.43;68.26;100542.94;6001507;28;20494;-73
2023/03/18 10:58:26;;;;;;;5.00;2.78;;;;;;;15.05;69.77;100538.59;6001468;28;20084;-73
2023/03/18 11:01:24;;;;;;;4.25;2.45;;;;;;;14.81;72.27;100536.09;6001707;28;20041;-73
2023/03/18 11:04:20;;;;;;;5.47;2.38;;;;;;;14.87;73.59;100546.88;6000628;28;20085;-73
2023/03/18 11:07:19;;;;;;;7.25;2.92;;;;;;;14.79;73.35;100546.09;6001301;28;20081;-73
2023/03/18 11:10:23;;;;;;;5.05;2.80;;;;;;;14.89;73.68;100549.41;6002475;28;20027;-73
2023/03/18 11:13:20;;;;;;;6.10;2.80;;;;;;;14.94;74.39;100539.00;6001689;28;20026;-73
2023/03/18 11:16:41;;;;;;;5.40;2.45;;;;;;;15.24;73.05;100546.09;6002762;28;20026;-73
2023/03/18 11:19:40;;;;;;;5.05;2.45;;;;;;;15.76;70.73;100530.06;5999655;28;20473;-73
2023/03/18 11:22:36;;;;;;;4.43;1.70;;;;;;;16.34;66.07;100521.16;6001695;28;20046;-73
2023/03/18 11:25:31;;;;;;;7.47;2.03;;;;;;;16.63;63.87;100526.47;6001010;28;20389;-73
2023/03/18 11:28:28;;;;;;;3.70;2.00;;;;;;;16.49;64.21;100527.34;6002557;28;20043;-73
2023/03/18 11:31:23;;;;;;;4.25;1.98;;;;;;;16.46;64.38;100524.19;6002326;28;20030;-73
2023/03/18 11:34:20;;;;;;;4.30;2.05;;;;;;;16.59;62.87;100538.59;6016157;28;20054;-72
2023/03/18 11:37:18;;;;;;;3.92;1.88;;;;;;;16.47;62.43;100520.50;6002433;28;20022;-73
2023/03/18 11:40:13;;;;;;;4.35;1.70;;;;;;;16.68;61.28;100528.59;6002121;28;20030;-72
2023/03/18 11:43:18;;;;;;;2.67;1.40;;;;;;;16.39;61.53;100525.94;6001765;28;20038;-72
2023/03/18 11:46:14;;;;;;;3.88;1.73;;;;;;;16.34;61.10;100528.38;6000744;28;20046;-72
2023/03/18 11:49:12;;;;;;;3.33;1.67;;;;;;;16.01;62.10;100530.63;6002332;28;20054;-73
2023/03/18 11:52:32;;;;;;;3.13;1.67;;;;;;;16.44;62.36;100528.91;6001564;28;20117;-73
2023/03/18 11:55:38;;;;;;;2.55;1.50;;;;;;;16.28;61.63;100537.97;6017259;28;20030;-73
2023/03/18 11:58:41;;;;;;;4.15;1.60;;;;;;;16.08;62.63;100537.75;6017062;28;20038;-74
2023/03/18 12:01:52;;;;;;;2.88;1.60;;;;;;;16.13;63.25;100534.50;6002126;28;20039;-73
2023/03/18 12:05:18;;;;;;;6.10;1.90;;;;;;;16.36;62.80;100547.75;6006136;28;20152;-73
2023/03/18 12:08:28;;;;;;;3.58;1.70;;;;;;;16.18;63.60;100540.13;6021459;28;20041;-73
2023/03/18 12:11:50;;;;;;;3.42;1.67;;;;;;;16.05;63.94;100542.63;6006407;28;20050;-74
2023/03/18 12:15:21;;;;;;;3.78;1.80;;;;;;;15.85;65.40;100542.34;6006532;28;20031;-73
2023/03/18 12:18:43;;;;;;;4.03;1.60;;;;;;;15.74;65.39;100541.97;6005217;28;20042;-74
2023/03/18 12:21:51;;;;;;;3.10;1.63;;;;;;;15.79;64.98;100547.63;6005768;28;20035;-73
2023/03/18 12:25:07;;;;;;;2.88;1.63;;;;;;;16.22;63.75;100544.09;6021268;28;20117;-73
2023/03/18 12:28:28;;;;;;;3.10;1.50;;;;;;;16.49;62.62;100524.66;6005943;28;20478;-73
2023/03/18 12:31:35;;;;;;;3.17;1.60;;;;;;;16.85;59.96;100523.84;6006054;28;20031;-73
2023/03/18 12:34:49;;;;;;;;;;;;;;;16.94;59.25;100544.94;6005373;28;20045;-73
2023/03/18 12:38:09;;;;;;;3.95;1.85;;;;;;;17.32;58.08;100526.72;6005368;28;19925;-73
2023/03/18 12:41:27;;;;;;;3.10;1.55;;;;;;;17.37;56.23;100526.13;5999314;28;20019;-73
2023/03/18 12:44:27;;;;;;;3.00;1.20;;;;;;;17.61;57.65;100525.75;6004791;28;20034;-73
2023/03/18 12:47:34;;;;;;;2.80;1.55;;;;;;;17.61;56.58;100531.91;6020455;28;20117;-73
2023/03/18 12:50:37;;;;;;;5.22;1.60;;;;;;;17.66;56.93;100517.94;6005644;28;20034;-73
2023/03/18 12:53:37;;;;;;;3.22;1.20;;;;;;;18.14;55.98;100526.84;6019784;28;20038;-73
2023/03/18 12:56:32;;;;;;;;;;;;;;;18.03;54.03;100527.41;6005987;28;20027;-72
2023/03/18 12:59:35;;;;;;;3.80;1.90;;;;;;;18.13;55.01;100527.88;6004138;28;19921;-73
2023/03/18 13:03:02;;;;;;;2.85;1.58;;;;;;;18.41;53.89;100529.44;6004865;28;20479;-73
2023/03/18 13:06:22;;;;;;;4.05;1.60;;;;;;;18.16;54.95;100519.41;6005332;28;20080;-73
2023/03/18 13:09:26;;;;;;;2.35;1.38;;;;;;;18.54;54.77;100514.41;6004682;28;20443;-73
2023/03/18 13:12:25;;;;;;;4.85;1.70;;;;;;;18.34;54.44;100527.78;6019654;28;20038;-73
2023/03/18 13:15:27;;;;;;;3.55;1.90;;;;;;;17.96;56.03;100523.88;5999106;28;20118;-73
2023/03/18 13:18:26;;;;;;;3.80;2.03;;;;;;;18.04;55.88;100526.41;6003827;28;20038;-73
2023/03/18 13:21:24;;;;;;;4.18;2.03;;;;;;;17.70;56.42;100528.06;6005088;28;20077;-73
2023/03/18 13:24:36;;;;;;;3.97;1.90;;;;;;;17.71;56.91;100527.03;6000969;28;20042;-73
2023/03/18 13:27:43;;;;;;;5.18;2.03;;;;;;;17.64;56.18;100528.00;6003710;28;20114;-73
2023/03/18 13:30:51;;;;;;;3.35;1.80;;;;;;;17.68;56.13;100523.91;6003356;28;20031;-73
2023/03/18 13:33:55;;;;;;;3.08;1.60;;;;;;;17.63;56.18;100521.84;6003995;28;20034;-74
2023/03/18 13:37:27;;;;;;;2.70;1.52;;;;;;;17.66;55.29;100525.97;6003263;28;20105;-73
2023/03/18 13:40:40;;;;;;;3.15;1.50;;;;;;;17.46;56.51;100517.75;6004201;28;20031;-73
2023/03/18 13:43:40;;;;;;;3.35;1.67;;;;;;;17.62;55.60;100517.47;6002551;28;20030;-74
2023/03/18 13:46:36;;;;;;;3.45;1.70;;;;;;;17.54;55.65;100520.31;6003067;28;20486;-74
2023/03/18 13:49:32;;;;;;;2.30;1.25;;;;;;;17.83;55.14;100512.03;6004120;28;20126;-73
2023/03/18 13:52:39;;;;;;;2.80;1.70;;;;;;;17.98;54.62;100521.81;6018572;28;20502;-73
2023/03/18 13:55:38;;;;;;;3.30;1.63;;;;;;;18.15;55.04;100523.97;6002590;28;20034;-73